createdAt,value
2022-12-31T00:02:02.446Z,89.12
2022-12-31T00:04:32.451Z,88.99
2022-12-31T00:07:02.745Z,88.87
2022-12-31T00:09:35.615Z,87.94
2022-12-31T00:12:06.335Z,87.47
2022-12-31T00:14:36.838Z,87.20
2022-12-31T00:17:07.959Z,87.27
2022-12-31T00:19:37.480Z,87.61
2022-12-31T00:22:07.294Z,87.75
2022-12-31T00:24:36.726Z,87.84
2022-12-31T00:27:09.498Z,88.01
2022-12-31T00:29:39.242Z,88.09
2022-12-31T00:32:08.964Z,88.13
2022-12-31T00:34:38.628Z,88.10
2022-12-31T00:37:08.546Z,88.28
2022-12-31T00:39:38.091Z,88.39
2022-12-31T00:42:09.086Z,88.57
2022-12-31T00:44:40.627Z,88.78
2022-12-31T00:47:10.160Z,88.88
2022-12-31T00:49:41.355Z,89.08
2022-12-31T00:52:13.324Z,89.31
2022-12-31T00:54:42.589Z,89.41
2022-12-31T00:57:12.417Z,89.42
2022-12-31T00:59:42.264Z,89.37
2022-12-31T01:02:11.959Z,89.40
2022-12-31T01:04:41.487Z,89.44
2022-12-31T01:07:11.480Z,89.51
2022-12-31T01:09:41.191Z,89.54
2022-12-31T01:12:11.689Z,89.55
2022-12-31T01:14:42.636Z,89.69
2022-12-31T01:17:13.440Z,89.64
2022-12-31T01:19:43.211Z,89.71
2022-12-31T01:22:12.829Z,89.72
2022-12-31T01:24:42.749Z,89.72
2022-12-31T01:27:12.541Z,89.73
2022-12-31T01:29:41.888Z,89.79
2022-12-31T01:32:12.252Z,89.87
2022-12-31T01:34:42.620Z,90.07
2022-12-31T01:37:12.236Z,90.00
2022-12-31T01:39:41.649Z,90.04
2022-12-31T01:42:13.151Z,90.16
2022-12-31T01:44:52.034Z,90.26
2022-12-31T01:47:35.990Z,90.46
2022-12-31T01:50:23.992Z,90.52
2022-12-31T01:52:57.763Z,90.68
2022-12-31T01:55:38.317Z,90.92
2022-12-31T01:58:23.483Z,91.28
2022-12-31T02:00:53.274Z,91.32
2022-12-31T02:03:23.353Z,91.34
2022-12-31T02:06:24.037Z,91.24
2022-12-31T02:08:53.427Z,91.14
2022-12-31T02:11:31.180Z,91.16
2022-12-31T02:14:04.655Z,91.27
2022-12-31T02:16:57.585Z,91.18
2022-12-31T02:19:58.692Z,91.11
2022-12-31T02:23:10.613Z,91.16
2022-12-31T02:26:22.587Z,91.29
2022-12-31T02:29:16.630Z,91.26
2022-12-31T02:31:59.170Z,91.37
2022-12-31T02:34:36.561Z,91.55
2022-12-31T02:37:09.235Z,91.61
2022-12-31T02:39:38.847Z,91.50
2022-12-31T02:42:08.206Z,91.48
2022-12-31T02:44:41.775Z,91.45
2022-12-31T02:47:25.648Z,91.38
2022-12-31T02:50:15.714Z,91.43
2022-12-31T02:53:12.675Z,91.42
2022-12-31T02:56:03.358Z,91.67
2022-12-31T02:59:23.999Z,91.88
2022-12-31T03:02:13.705Z,91.84
2022-12-31T03:04:53.254Z,91.85
2022-12-31T03:07:28.230Z,92.00
2022-12-31T03:09:58.211Z,91.90
2022-12-31T03:12:48.724Z,91.95
2022-12-31T03:15:28.892Z,92.20
2022-12-31T03:18:07.442Z,92.22
2022-12-31T03:20:59.412Z,92.41
2022-12-31T03:23:37.618Z,92.62
2022-12-31T03:26:11.616Z,92.54
2022-12-31T03:28:45.260Z,92.40
2022-12-31T03:31:16.530Z,92.30
2022-12-31T03:33:46.353Z,92.22
2022-12-31T03:36:17.113Z,92.15
2022-12-31T03:38:52.544Z,92.03
2022-12-31T03:41:20.799Z,91.90
2022-12-31T03:43:50.121Z,91.65
2022-12-31T03:46:19.903Z,91.36
2022-12-31T03:48:51.211Z,91.40
2022-12-31T03:51:20.712Z,91.61
2022-12-31T03:53:50.576Z,91.80
2022-12-31T03:56:20.490Z,91.96
2022-12-31T03:58:51.992Z,91.93
2022-12-31T04:01:23.403Z,91.99
2022-12-31T04:03:55.109Z,92.26
2022-12-31T04:06:24.107Z,92.61
2022-12-31T04:08:54.481Z,92.70
2022-12-31T04:11:26.665Z,92.70
2022-12-31T04:13:59.105Z,92.84
2022-12-31T04:16:29.298Z,92.85
2022-12-31T04:19:00.033Z,92.76
2022-12-31T04:21:34.770Z,92.80
2022-12-31T04:24:02.450Z,92.66
2022-12-31T04:26:32.585Z,92.58
2022-12-31T04:29:03.357Z,92.63
2022-12-31T04:31:34.867Z,92.88
2022-12-31T04:34:06.001Z,93.03
2022-12-31T04:36:36.241Z,93.11
2022-12-31T04:39:05.697Z,93.15
2022-12-31T04:41:35.852Z,93.33
2022-12-31T04:44:06.249Z,93.48
2022-12-31T04:46:36.018Z,93.70
2022-12-31T04:49:07.166Z,93.88
2022-12-31T04:51:37.909Z,93.96
2022-12-31T04:54:08.537Z,94.11
2022-12-31T04:56:37.845Z,94.23
2022-12-31T04:59:07.556Z,94.30
2022-12-31T05:01:37.215Z,94.52
2022-12-31T05:04:06.897Z,94.85
2022-12-31T05:06:36.694Z,95.14
2022-12-31T05:09:08.445Z,95.35
2022-12-31T05:11:38.156Z,95.65
2022-12-31T05:14:08.659Z,95.85
2022-12-31T05:16:38.221Z,96.10
2022-12-31T05:19:09.532Z,96.29
2022-12-31T05:21:39.151Z,96.38
2022-12-31T05:24:08.887Z,96.43
2022-12-31T05:26:40.969Z,96.47
2022-12-31T05:29:10.555Z,96.55
2022-12-31T05:31:40.009Z,96.62
2022-12-31T05:34:09.091Z,96.78
2022-12-31T05:36:38.388Z,96.94
2022-12-31T05:39:09.875Z,97.05
2022-12-31T05:41:39.845Z,97.23
2022-12-31T05:44:11.381Z,97.33
2022-12-31T05:46:40.898Z,97.49
2022-12-31T05:49:10.623Z,97.63
2022-12-31T05:51:40.099Z,97.74
2022-12-31T05:54:10.334Z,97.81
2022-12-31T05:56:40.273Z,97.88
2022-12-31T05:59:09.885Z,98.03
2022-12-31T06:01:40.198Z,98.10
2022-12-31T06:04:09.591Z,98.21
2022-12-31T06:06:40.913Z,98.33
2022-12-31T06:09:10.430Z,98.45
2022-12-31T06:11:39.909Z,98.57
2022-12-31T06:14:09.556Z,98.65
2022-12-31T06:16:40.837Z,98.69
2022-12-31T06:19:10.331Z,98.71
2022-12-31T06:21:39.930Z,98.82
2022-12-31T06:24:09.953Z,98.91
2022-12-31T06:26:39.500Z,98.90
2022-12-31T06:29:08.733Z,99.06
2022-12-31T06:31:39.577Z,99.34
2022-12-31T06:34:10.439Z,99.53
2022-12-31T06:36:41.104Z,99.51
2022-12-31T06:39:10.993Z,99.55
2022-12-31T06:41:41.135Z,99.61
2022-12-31T06:44:12.077Z,99.79
2022-12-31T06:46:45.537Z,99.96
2022-12-31T06:49:15.123Z,100.00
2022-12-31T06:51:48.739Z,100.00
2022-12-31T06:54:18.905Z,100.00
2022-12-31T06:56:49.484Z,100.00
2022-12-31T06:59:25.940Z,100.00
2022-12-31T07:02:33.444Z,100.00
2022-12-31T07:05:17.692Z,100.00
2022-12-31T07:08:09.328Z,100.00
2022-12-31T07:11:02.482Z,100.00
2022-12-31T07:13:53.924Z,100.00
2022-12-31T07:16:44.017Z,100.00
2022-12-31T07:19:32.995Z,100.00
2022-12-31T07:22:03.074Z,100.00
2022-12-31T07:24:33.623Z,100.00
2022-12-31T07:27:22.606Z,100.00
2022-12-31T07:30:03.353Z,100.00
2022-12-31T07:32:58.250Z,100.00
2022-12-31T07:36:25.514Z,100.00
2022-12-31T07:39:11.603Z,100.00
2022-12-31T07:42:02.595Z,100.00
2022-12-31T07:44:44.110Z,100.00
2022-12-31T07:47:25.995Z,100.00
2022-12-31T07:49:56.996Z,100.00
2022-12-31T07:52:27.982Z,100.00
2022-12-31T07:54:57.248Z,100.00
2022-12-31T07:57:31.742Z,100.00
2022-12-31T08:00:09.420Z,100.00
2022-12-31T08:03:42.114Z,100.00
2022-12-31T08:06:14.881Z,100.00
2022-12-31T08:08:52.804Z,99.89
2022-12-31T08:11:30.479Z,99.35
2022-12-31T08:14:02.827Z,98.61
2022-12-31T08:16:34.567Z,97.82
2022-12-31T08:19:04.817Z,96.85
2022-12-31T08:21:46.025Z,95.58
2022-12-31T08:25:01.128Z,94.35
2022-12-31T08:28:08.043Z,93.56
2022-12-31T08:30:59.412Z,92.27
2022-12-31T08:33:49.463Z,91.70
2022-12-31T08:36:48.765Z,91.09
2022-12-31T08:39:56.281Z,90.70
2022-12-31T08:42:38.513Z,90.20
2022-12-31T08:45:25.542Z,89.85
2022-12-31T08:48:04.256Z,89.79
2022-12-31T08:50:36.045Z,89.88
2022-12-31T08:53:06.896Z,89.93
2022-12-31T08:55:37.679Z,90.00
2022-12-31T08:58:47.559Z,90.14
2022-12-31T09:01:21.136Z,90.29
2022-12-31T09:04:05.215Z,90.39
2022-12-31T09:06:41.559Z,90.46
2022-12-31T09:09:53.422Z,90.44
2022-12-31T09:12:43.239Z,90.37
2022-12-31T09:15:30.629Z,90.16
2022-12-31T09:18:01.636Z,90.16
2022-12-31T09:20:42.788Z,90.15
2022-12-31T09:23:05.887Z,90.13
2022-12-31T09:25:36.949Z,90.06
2022-12-31T09:28:19.772Z,90.06
2022-12-31T09:31:06.745Z,90.08
2022-12-31T09:34:02.260Z,90.09
2022-12-31T09:36:45.492Z,89.93
2022-12-31T09:39:32.085Z,89.79
2022-12-31T09:42:31.039Z,89.70
2022-12-31T09:45:16.329Z,89.59
2022-12-31T09:47:57.071Z,89.55
2022-12-31T09:50:53.607Z,89.53
2022-12-31T09:53:43.815Z,89.42
2022-12-31T09:56:39.549Z,89.39
2022-12-31T09:59:33.048Z,89.34
2022-12-31T10:02:26.025Z,89.26
2022-12-31T10:05:23.754Z,89.13
2022-12-31T10:08:21.904Z,88.94
2022-12-31T10:10:59.126Z,88.74
2022-12-31T10:13:48.882Z,88.36
2022-12-31T10:16:41.945Z,88.04
2022-12-31T10:19:43.541Z,87.71
2022-12-31T10:22:36.597Z,87.51
2022-12-31T10:25:59.112Z,87.26
2022-12-31T10:29:12.420Z,86.92
2022-12-31T10:32:07.863Z,86.48
2022-12-31T10:35:04.229Z,86.07
2022-12-31T10:38:05.675Z,85.89
2022-12-31T10:41:23.583Z,85.70
2022-12-31T10:44:28.227Z,85.52
2022-12-31T10:47:22.979Z,85.34
2022-12-31T10:50:29.545Z,85.33
2022-12-31T10:53:26.144Z,85.18
2022-12-31T10:56:18.349Z,85.14
2022-12-31T10:58:55.889Z,85.14
2022-12-31T11:01:34.130Z,85.07
2022-12-31T11:04:45.911Z,84.89
2022-12-31T11:07:46.683Z,84.86
2022-12-31T11:10:55.570Z,84.79
2022-12-31T11:14:11.268Z,84.68
2022-12-31T11:17:15.756Z,84.46
2022-12-31T11:19:50.782Z,84.42
2022-12-31T11:22:42.317Z,84.29
2022-12-31T11:25:42.443Z,84.20
2022-12-31T11:28:33.860Z,84.09
2022-12-31T11:31:23.701Z,84.04
2022-12-31T11:34:24.612Z,84.09
2022-12-31T11:37:34.569Z,84.05
2022-12-31T11:40:36.104Z,83.80
2022-12-31T11:43:29.832Z,83.58
2022-12-31T11:46:32.241Z,83.51
2022-12-31T11:49:28.665Z,83.38
2022-12-31T11:52:21.615Z,83.13
2022-12-31T11:55:02.647Z,82.95
2022-12-31T11:57:36.969Z,82.70
2022-12-31T12:00:23.534Z,82.47
2022-12-31T12:03:02.816Z,82.42
2022-12-31T12:05:34.813Z,82.30
2022-12-31T12:08:04.705Z,82.20
2022-12-31T12:10:49.233Z,81.97
2022-12-31T12:13:26.163Z,81.87
2022-12-31T12:16:02.190Z,81.75
2022-12-31T12:19:06.294Z,81.74
2022-12-31T12:21:35.472Z,81.56
2022-12-31T12:24:09.388Z,81.58
2022-12-31T12:26:42.727Z,81.55
2022-12-31T12:29:24.276Z,81.39
2022-12-31T12:32:08.131Z,81.44
2022-12-31T12:34:45.926Z,81.41
2022-12-31T12:37:34.802Z,81.35
2022-12-31T12:40:20.343Z,81.28
2022-12-31T12:42:50.463Z,81.25
2022-12-31T12:45:26.554Z,81.25
2022-12-31T12:48:03.198Z,81.28
2022-12-31T12:50:43.225Z,81.33
2022-12-31T12:53:36.770Z,81.30
2022-12-31T12:56:30.700Z,81.31
2022-12-31T12:59:22.505Z,81.33
2022-12-31T13:02:43.655Z,81.33
2022-12-31T13:05:34.084Z,81.31
2022-12-31T13:08:12.064Z,81.40
2022-12-31T13:10:49.970Z,81.50
2022-12-31T13:13:46.578Z,81.59
2022-12-31T13:16:34.244Z,81.61
2022-12-31T13:19:35.759Z,81.65
2022-12-31T13:22:28.800Z,81.72
2022-12-31T13:25:12.855Z,81.76
2022-12-31T13:27:45.041Z,81.89
2022-12-31T13:30:26.898Z,82.01
2022-12-31T13:33:16.328Z,82.09
2022-12-31T13:35:51.333Z,82.18
2022-12-31T13:38:39.907Z,82.25
2022-12-31T13:41:28.641Z,82.36
2022-12-31T13:44:25.827Z,82.49
2022-12-31T13:47:23.665Z,82.60
2022-12-31T13:50:35.650Z,82.73
2022-12-31T13:53:26.614Z,82.88
2022-12-31T13:56:03.008Z,82.98
2022-12-31T13:58:46.182Z,83.03
2022-12-31T14:01:33.888Z,83.08
2022-12-31T14:04:32.684Z,83.22
2022-12-31T14:07:34.739Z,83.31
2022-12-31T14:10:01.276Z,83.45
2022-12-31T14:12:51.231Z,83.52
2022-12-31T14:15:41.124Z,83.62
2022-12-31T14:18:50.412Z,83.70
2022-12-31T14:21:26.525Z,83.90
2022-12-31T14:24:06.447Z,84.05
2022-12-31T14:26:41.987Z,84.17
2022-12-31T14:29:20.421Z,84.36
2022-12-31T14:32:01.257Z,84.46
2022-12-31T14:34:42.288Z,84.60
2022-12-31T14:37:23.045Z,84.67
2022-12-31T14:40:39.807Z,84.83
2022-12-31T14:43:20.581Z,84.85
2022-12-31T14:46:22.787Z,84.94
2022-12-31T14:49:35.022Z,85.04
2022-12-31T14:52:28.027Z,85.14
2022-12-31T14:55:16.084Z,85.24
2022-12-31T15:00:40.952Z,85.32
2022-12-31T15:03:27.889Z,85.46
2022-12-31T15:06:11.790Z,85.60
2022-12-31T15:09:15.828Z,85.70
2022-12-31T15:12:03.439Z,85.83
2022-12-31T15:14:42.309Z,85.87
2022-12-31T15:17:44.233Z,85.83
2022-12-31T15:20:24.315Z,85.89
2022-12-31T15:22:53.611Z,85.88
2022-12-31T15:25:40.462Z,85.81
2022-12-31T15:28:29.528Z,85.85
2022-12-31T15:31:19.681Z,85.86
2022-12-31T15:34:10.942Z,85.84
2022-12-31T15:36:47.185Z,85.85
2022-12-31T15:39:33.928Z,85.85
2022-12-31T15:42:36.608Z,85.90
2022-12-31T15:44:50.071Z,85.99
2022-12-31T15:47:31.498Z,86.14
2022-12-31T15:50:06.861Z,86.27
2022-12-31T15:52:43.393Z,86.36
2022-12-31T15:55:41.259Z,86.35
2022-12-31T15:58:18.589Z,86.24
2022-12-31T16:01:17.302Z,86.28
2022-12-31T16:04:07.635Z,86.32
2022-12-31T16:06:38.101Z,86.31
2022-12-31T16:09:10.174Z,86.43
2022-12-31T16:11:41.489Z,86.41
2022-12-31T16:14:37.104Z,86.23
2022-12-31T16:17:07.256Z,86.22
2022-12-31T16:19:44.423Z,86.13
2022-12-31T16:22:18.526Z,86.19
2022-12-31T16:25:29.155Z,86.30
2022-12-31T16:27:30.460Z,86.49
2022-12-31T16:30:04.788Z,86.61
2022-12-31T16:32:39.597Z,86.58
2022-12-31T16:35:26.812Z,86.53
2022-12-31T16:38:17.453Z,86.67
2022-12-31T16:41:10.995Z,86.80
2022-12-31T16:43:41.951Z,86.74
2022-12-31T16:46:28.080Z,86.65
2022-12-31T16:49:05.398Z,86.58
2022-12-31T16:51:35.302Z,86.46
2022-12-31T16:54:05.545Z,86.36
2022-12-31T16:56:38.901Z,86.26
2022-12-31T16:59:22.274Z,86.10
2022-12-31T17:01:51.150Z,85.98
2022-12-31T17:04:21.152Z,85.94
2022-12-31T17:06:50.899Z,85.82
2022-12-31T17:09:23.219Z,85.59
2022-12-31T17:12:01.079Z,85.43
2022-12-31T17:14:31.522Z,85.34
2022-12-31T17:17:07.213Z,85.20
2022-12-31T17:19:54.233Z,85.05
2022-12-31T17:22:37.011Z,84.86
2022-12-31T17:25:08.983Z,84.70
2022-12-31T17:27:39.774Z,84.59
2022-12-31T17:30:35.134Z,84.45
2022-12-31T17:33:24.870Z,84.34
2022-12-31T17:36:17.314Z,84.25
2022-12-31T17:38:46.880Z,84.06
2022-12-31T17:41:24.221Z,83.91
2022-12-31T17:43:58.358Z,83.86
2022-12-31T17:46:28.370Z,83.75
2022-12-31T17:49:02.032Z,83.76
2022-12-31T17:51:33.691Z,83.74
2022-12-31T17:54:03.622Z,83.63
2022-12-31T17:56:35.095Z,83.56
2022-12-31T17:59:04.795Z,83.58
2022-12-31T18:01:34.971Z,83.61
2022-12-31T18:04:11.060Z,83.45
2022-12-31T18:06:40.668Z,83.46
2022-12-31T18:09:10.417Z,83.39
2022-12-31T18:11:42.567Z,83.31
2022-12-31T18:14:14.899Z,83.28
2022-12-31T18:16:44.546Z,83.32
2022-12-31T18:19:37.787Z,83.29
2022-12-31T18:21:47.161Z,83.31
2022-12-31T18:24:24.227Z,83.33
2022-12-31T18:26:51.256Z,83.42
2022-12-31T18:29:22.843Z,83.43
2022-12-31T18:31:52.221Z,83.46
2022-12-31T18:34:21.641Z,83.51
2022-12-31T18:36:52.109Z,83.60
2022-12-31T18:39:21.311Z,83.57
2022-12-31T18:41:50.842Z,83.57
2022-12-31T18:44:20.831Z,83.57
2022-12-31T18:46:54.073Z,83.55
2022-12-31T18:49:24.610Z,83.59
2022-12-31T18:51:55.282Z,83.61
2022-12-31T18:54:25.810Z,83.64
2022-12-31T18:56:57.301Z,83.62
2022-12-31T18:59:27.181Z,83.61
2022-12-31T19:01:57.017Z,83.63
2022-12-31T19:04:28.457Z,83.59
2022-12-31T19:06:57.860Z,83.57
2022-12-31T19:09:45.977Z,83.54
2022-12-31T19:12:01.948Z,83.52
2022-12-31T19:14:32.783Z,83.51
2022-12-31T19:19:31.279Z,83.42
2022-12-31T19:22:01.315Z,83.42
2022-12-31T19:24:32.518Z,83.34
2022-12-31T19:27:02.520Z,83.28
2022-12-31T19:29:32.502Z,83.19
2022-12-31T19:32:02.422Z,83.15
2022-12-31T19:34:33.224Z,83.05
2022-12-31T19:37:03.191Z,83.05
2022-12-31T19:39:33.828Z,82.93
2022-12-31T19:42:04.038Z,82.89
2022-12-31T19:44:34.551Z,82.91
2022-12-31T19:47:06.087Z,82.85
2022-12-31T19:49:37.341Z,82.79
2022-12-31T19:52:07.159Z,82.71
2022-12-31T19:54:37.187Z,82.50
2022-12-31T19:57:09.246Z,82.41
2022-12-31T19:59:40.523Z,82.31
2022-12-31T20:02:10.930Z,82.13
2022-12-31T20:04:40.211Z,82.01
2022-12-31T20:07:10.664Z,81.92
2022-12-31T20:09:41.496Z,81.87
2022-12-31T20:12:11.489Z,81.76
2022-12-31T20:14:41.296Z,81.72
2022-12-31T20:17:12.049Z,81.72
2022-12-31T20:19:41.632Z,81.66
2022-12-31T20:22:11.275Z,81.64
2022-12-31T20:24:42.307Z,81.56
2022-12-31T20:27:18.144Z,81.55
2022-12-31T20:29:42.839Z,81.37
2022-12-31T20:32:15.637Z,81.34
2022-12-31T20:34:45.056Z,81.31
2022-12-31T20:37:14.781Z,81.26
2022-12-31T20:39:43.984Z,81.17
2022-12-31T20:42:14.053Z,81.02
2022-12-31T20:44:45.434Z,81.05
2022-12-31T20:47:16.034Z,80.92
2022-12-31T20:50:10.242Z,80.83
2022-12-31T20:52:17.759Z,80.83
2022-12-31T20:54:48.943Z,80.85
2022-12-31T20:57:18.507Z,80.79
2022-12-31T20:59:48.297Z,80.84
2022-12-31T21:02:21.328Z,80.86
2022-12-31T21:04:50.390Z,80.89
2022-12-31T21:07:21.023Z,80.74
2022-12-31T21:09:50.708Z,80.69
2022-12-31T21:12:40.764Z,80.59
2022-12-31T21:15:12.778Z,80.62
2022-12-31T21:17:43.380Z,80.66
2022-12-31T21:20:13.329Z,80.67
2022-12-31T21:22:43.026Z,80.64
2022-12-31T21:25:13.567Z,80.59
2022-12-31T21:27:42.971Z,80.50
2022-12-31T21:30:18.802Z,80.47
2022-12-31T21:32:46.829Z,80.39
2022-12-31T21:37:58.991Z,80.39
2022-12-31T21:40:23.241Z,80.38
2022-12-31T21:42:53.946Z,80.36
2022-12-31T21:45:23.747Z,80.35
2022-12-31T21:48:11.867Z,80.39
2022-12-31T21:50:42.491Z,80.39
2022-12-31T21:53:14.339Z,80.40
2022-12-31T21:56:04.448Z,80.36
2022-12-31T21:58:38.668Z,80.37
2022-12-31T22:01:26.988Z,80.47
2022-12-31T22:03:56.510Z,80.52
2022-12-31T22:06:26.321Z,80.62
2022-12-31T22:08:55.924Z,80.65
2022-12-31T22:11:28.373Z,80.66
2022-12-31T22:13:58.283Z,80.66
2022-12-31T22:16:27.838Z,80.70
2022-12-31T22:18:57.389Z,80.72
2022-12-31T22:21:27.506Z,80.72
2022-12-31T22:23:58.794Z,80.78
2022-12-31T22:26:29.360Z,80.77
2022-12-31T22:28:59.722Z,80.79
2022-12-31T22:31:30.361Z,80.86
2022-12-31T22:33:59.832Z,80.81
2022-12-31T22:36:29.357Z,80.84
2022-12-31T22:38:58.963Z,80.83
2022-12-31T22:41:30.387Z,80.83
2022-12-31T22:44:03.655Z,80.85
2022-12-31T22:46:32.241Z,80.84
2022-12-31T22:49:02.986Z,80.80
2022-12-31T22:51:56.581Z,80.81
2022-12-31T22:54:04.674Z,80.90
2022-12-31T22:56:34.361Z,80.90
2022-12-31T22:59:04.005Z,80.94
2022-12-31T23:01:34.923Z,80.95
2022-12-31T23:04:05.752Z,80.99
2022-12-31T23:06:37.366Z,81.08
2022-12-31T23:09:26.472Z,81.17
2022-12-31T23:11:59.281Z,81.21
2022-12-31T23:14:46.994Z,81.28
2022-12-31T23:17:38.225Z,81.34
2022-12-31T23:20:40.054Z,81.39
2022-12-31T23:23:15.484Z,81.50
2022-12-31T23:25:50.359Z,81.64
2022-12-31T23:28:23.421Z,81.72
2022-12-31T23:30:53.844Z,81.85
2022-12-31T23:33:25.448Z,81.96
2022-12-31T23:36:05.244Z,82.00
2022-12-31T23:38:34.896Z,82.08
2022-12-31T23:41:18.003Z,82.19
2022-12-31T23:43:47.404Z,82.27
2022-12-31T23:46:17.466Z,82.39
2022-12-31T23:48:47.285Z,82.51
2022-12-31T23:51:17.857Z,82.59
2022-12-31T23:53:47.249Z,82.66
2022-12-31T23:56:23.308Z,82.74
2022-12-31T23:58:55.914Z,82.78
